Nebraska, Indiana
Current Conditions -  °F | °C
As of 11:50 AM on Wednesday 26 Nov 2014 (Local Time) from KBAK Reporting Station
Broken Clouds Broken Clouds  
Wind Chill: 32°   Ceiling: 2100
Heat Index: 32°   Visibility: 10mi
Dew Point: 25°   Wind: 3mph
Humidity: 75%   Direction: 150°SSE
Pressure: 30.12"   Gusts: NA
Location:  39.06°N, 85.46°W
Report Text: KBAK 261650Z 15003KT 10SM BKN021 00/M04 A3012
Loading
Personal Weather Stations






























Interactive Weather Map New forecast layout! Learn more

10-Day Weather Forecast

Advertisements
Track Severe Weather on mobile